sensor_id;sensor_type;location;lat;lon;timestamp;P1;durP1;ratioP1;P2;durP2;ratioP2
17955;SDS011;27666;51.498;11.966;2022-10-31T00:01:38;15.90;;;8.90;;
17955;SDS011;27666;51.498;11.966;2022-10-31T00:04:25;18.70;;;9.50;;
17955;SDS011;27666;51.498;11.966;2022-10-31T00:07:11;21.50;;;9.02;;
17955;SDS011;27666;51.498;11.966;2022-10-31T00:09:57;15.20;;;8.50;;
17955;SDS011;27666;51.498;11.966;2022-10-31T00:12:44;13.98;;;8.15;;
17955;SDS011;27666;51.498;11.966;2022-10-31T00:15:31;13.10;;;8.65;;
17955;SDS011;27666;51.498;11.966;2022-10-31T00:18:19;12.30;;;7.55;;
17955;SDS011;27666;51.498;11.966;2022-10-31T00:21:06;15.10;;;8.10;;
17955;SDS011;27666;51.498;11.966;2022-10-31T00:23:52;15.27;;;8.30;;
17955;SDS011;27666;51.498;11.966;2022-10-31T00:26:39;14.23;;;8.02;;
17955;SDS011;27666;51.498;11.966;2022-10-31T00:29:25;11.80;;;7.38;;
17955;SDS011;27666;51.498;11.966;2022-10-31T00:32:12;13.98;;;7.70;;
17955;SDS011;27666;51.498;11.966;2022-10-31T00:35:00;18.65;;;8.38;;
17955;SDS011;27666;51.498;11.966;2022-10-31T00:37:46;17.58;;;8.77;;
17955;SDS011;27666;51.498;11.966;2022-10-31T00:40:32;11.80;;;8.45;;
17955;SDS011;27666;51.498;11.966;2022-10-31T00:43:18;13.48;;;8.20;;
17955;SDS011;27666;51.498;11.966;2022-10-31T00:46:05;16.50;;;8.60;;
17955;SDS011;27666;51.498;11.966;2022-10-31T00:48:51;15.07;;;8.60;;
17955;SDS011;27666;51.498;11.966;2022-10-31T00:51:39;13.95;;;8.15;;
17955;SDS011;27666;51.498;11.966;2022-10-31T00:54:26;13.98;;;8.23;;
17955;SDS011;27666;51.498;11.966;2022-10-31T00:57:12;14.63;;;8.90;;
17955;SDS011;27666;51.498;11.966;2022-10-31T00:59:59;16.92;;;8.73;;
17955;SDS011;27666;51.498;11.966;2022-10-31T01:02:45;19.23;;;8.10;;
17955;SDS011;27666;51.498;11.966;2022-10-31T01:05:32;16.30;;;8.68;;
17955;SDS011;27666;51.498;11.966;2022-10-31T01:08:19;13.48;;;8.02;;
17955;SDS011;27666;51.498;11.966;2022-10-31T01:11:07;12.07;;;8.35;;
17955;SDS011;27666;51.498;11.966;2022-10-31T01:13:55;10.27;;;7.50;;
17955;SDS011;27666;51.498;11.966;2022-10-31T01:16:42;16.10;;;8.00;;
17955;SDS011;27666;51.498;11.966;2022-10-31T01:19:28;15.98;;;8.10;;
17955;SDS011;27666;51.498;11.966;2022-10-31T01:22:15;14.48;;;7.50;;
17955;SDS011;27666;51.498;11.966;2022-10-31T01:25:02;12.50;;;7.40;;
17955;SDS011;27666;51.498;11.966;2022-10-31T01:27:49;13.80;;;7.43;;
17955;SDS011;27666;51.498;11.966;2022-10-31T01:30:36;10.77;;;7.20;;
17955;SDS011;27666;51.498;11.966;2022-10-31T01:33:22;15.80;;;8.13;;
17955;SDS011;27666;51.498;11.966;2022-10-31T01:36:16;14.57;;;7.78;;
17955;SDS011;27666;51.498;11.966;2022-10-31T01:39:04;12.37;;;7.87;;
17955;SDS011;27666;51.498;11.966;2022-10-31T01:41:55;13.02;;;7.57;;
17955;SDS011;27666;51.498;11.966;2022-10-31T01:44:50;16.40;;;7.83;;
17955;SDS011;27666;51.498;11.966;2022-10-31T01:47:41;11.53;;;7.73;;
17955;SDS011;27666;51.498;11.966;2022-10-31T01:50:31;14.20;;;7.47;;
17955;SDS011;27666;51.498;11.966;2022-10-31T01:53:21;14.77;;;7.88;;
17955;SDS011;27666;51.498;11.966;2022-10-31T01:56:10;13.27;;;7.93;;
17955;SDS011;27666;51.498;11.966;2022-10-31T01:59:00;15.50;;;8.10;;
17955;SDS011;27666;51.498;11.966;2022-10-31T02:01:48;12.57;;;7.00;;
17955;SDS011;27666;51.498;11.966;2022-10-31T02:04:37;9.97;;;6.83;;
17955;SDS011;27666;51.498;11.966;2022-10-31T02:07:25;14.40;;;8.57;;
17955;SDS011;27666;51.498;11.966;2022-10-31T02:10:15;14.73;;;7.40;;
17955;SDS011;27666;51.498;11.966;2022-10-31T02:13:04;10.47;;;7.10;;
17955;SDS011;27666;51.498;11.966;2022-10-31T02:15:54;14.17;;;7.63;;
17955;SDS011;27666;51.498;11.966;2022-10-31T02:18:42;15.50;;;8.70;;
17955;SDS011;27666;51.498;11.966;2022-10-31T02:21:30;13.13;;;7.47;;
17955;SDS011;27666;51.498;11.966;2022-10-31T02:24:34;20.33;;;8.20;;
17955;SDS011;27666;51.498;11.966;2022-10-31T02:27:36;14.53;;;8.17;;
17955;SDS011;27666;51.498;11.966;2022-10-31T02:30:36;14.67;;;8.20;;
17955;SDS011;27666;51.498;11.966;2022-10-31T02:33:30;12.83;;;7.80;;
17955;SDS011;27666;51.498;11.966;2022-10-31T02:36:23;11.13;;;7.57;;
17955;SDS011;27666;51.498;11.966;2022-10-31T02:39:16;12.03;;;7.17;;
17955;SDS011;27666;51.498;11.966;2022-10-31T02:42:09;16.77;;;8.17;;
17955;SDS011;27666;51.498;11.966;2022-10-31T02:45:04;18.17;;;8.07;;
17955;SDS011;27666;51.498;11.966;2022-10-31T02:47:55;10.90;;;7.47;;
17955;SDS011;27666;51.498;11.966;2022-10-31T02:50:47;12.60;;;7.50;;
17955;SDS011;27666;51.498;11.966;2022-10-31T02:53:38;13.60;;;7.87;;
17955;SDS011;27666;51.498;11.966;2022-10-31T02:56:25;13.23;;;7.90;;
17955;SDS011;27666;51.498;11.966;2022-10-31T02:59:11;13.77;;;8.03;;
17955;SDS011;27666;51.498;11.966;2022-10-31T03:02:05;13.17;;;8.23;;
17955;SDS011;27666;51.498;11.966;2022-10-31T03:05:11;13.07;;;7.37;;
17955;SDS011;27666;51.498;11.966;2022-10-31T03:08:06;10.87;;;6.67;;
17955;SDS011;27666;51.498;11.966;2022-10-31T03:10:58;14.70;;;7.37;;
17955;SDS011;27666;51.498;11.966;2022-10-31T03:13:45;13.63;;;7.50;;
17955;SDS011;27666;51.498;11.966;2022-10-31T03:16:39;16.80;;;7.20;;
17955;SDS011;27666;51.498;11.966;2022-10-31T03:19:31;11.93;;;7.40;;
17955;SDS011;27666;51.498;11.966;2022-10-31T03:22:22;11.30;;;7.13;;
17955;SDS011;27666;51.498;11.966;2022-10-31T03:25:12;13.20;;;7.60;;
17955;SDS011;27666;51.498;11.966;2022-10-31T03:27:59;11.40;;;7.50;;
17955;SDS011;27666;51.498;11.966;2022-10-31T03:30:48;13.13;;;7.57;;
17955;SDS011;27666;51.498;11.966;2022-10-31T03:33:37;12.67;;;7.93;;
17955;SDS011;27666;51.498;11.966;2022-10-31T03:36:26;15.80;;;8.20;;
17955;SDS011;27666;51.498;11.966;2022-10-31T03:39:14;14.93;;;7.70;;
17955;SDS011;27666;51.498;11.966;2022-10-31T03:42:07;9.53;;;6.97;;
17955;SDS011;27666;51.498;11.966;2022-10-31T03:44:56;13.20;;;7.70;;
17955;SDS011;27666;51.498;11.966;2022-10-31T03:47:46;12.53;;;8.53;;
17955;SDS011;27666;51.498;11.966;2022-10-31T03:50:39;13.17;;;7.33;;
17955;SDS011;27666;51.498;11.966;2022-10-31T03:53:30;14.40;;;8.00;;
17955;SDS011;27666;51.498;11.966;2022-10-31T03:56:21;14.07;;;8.67;;
17955;SDS011;27666;51.498;11.966;2022-10-31T03:59:15;13.37;;;7.90;;
17955;SDS011;27666;51.498;11.966;2022-10-31T04:02:05;17.97;;;8.20;;
17955;SDS011;27666;51.498;11.966;2022-10-31T04:04:56;13.20;;;6.90;;
17955;SDS011;27666;51.498;11.966;2022-10-31T04:07:43;10.20;;;7.47;;
17955;SDS011;27666;51.498;11.966;2022-10-31T04:10:33;14.23;;;7.20;;
17955;SDS011;27666;51.498;11.966;2022-10-31T04:13:23;13.67;;;7.53;;
17955;SDS011;27666;51.498;11.966;2022-10-31T04:16:13;15.43;;;8.07;;
17955;SDS011;27666;51.498;11.966;2022-10-31T04:19:01;11.00;;;7.63;;
17955;SDS011;27666;51.498;11.966;2022-10-31T04:21:47;10.80;;;7.30;;
17955;SDS011;27666;51.498;11.966;2022-10-31T04:24:34;16.67;;;8.63;;
17955;SDS011;27666;51.498;11.966;2022-10-31T04:27:21;14.43;;;8.13;;
17955;SDS011;27666;51.498;11.966;2022-10-31T04:30:08;16.00;;;8.60;;
17955;SDS011;27666;51.498;11.966;2022-10-31T04:32:56;11.57;;;7.60;;
17955;SDS011;27666;51.498;11.966;2022-10-31T04:35:43;13.00;;;7.87;;
17955;SDS011;27666;51.498;11.966;2022-10-31T04:38:29;16.40;;;8.43;;
17955;SDS011;27666;51.498;11.966;2022-10-31T04:41:16;15.63;;;7.97;;
17955;SDS011;27666;51.498;11.966;2022-10-31T04:44:02;13.33;;;8.03;;
17955;SDS011;27666;51.498;11.966;2022-10-31T04:46:48;16.87;;;8.00;;
17955;SDS011;27666;51.498;11.966;2022-10-31T04:49:36;15.90;;;7.93;;
17955;SDS011;27666;51.498;11.966;2022-10-31T04:52:22;14.87;;;7.90;;
17955;SDS011;27666;51.498;11.966;2022-10-31T04:55:09;12.73;;;7.00;;
17955;SDS011;27666;51.498;11.966;2022-10-31T04:57:56;13.80;;;8.13;;
17955;SDS011;27666;51.498;11.966;2022-10-31T05:00:43;17.47;;;7.90;;
17955;SDS011;27666;51.498;11.966;2022-10-31T05:03:30;14.37;;;7.53;;
17955;SDS011;27666;51.498;11.966;2022-10-31T05:06:17;11.70;;;8.00;;
17955;SDS011;27666;51.498;11.966;2022-10-31T05:09:04;10.80;;;7.73;;
17955;SDS011;27666;51.498;11.966;2022-10-31T05:11:50;14.13;;;7.33;;
17955;SDS011;27666;51.498;11.966;2022-10-31T05:14:36;13.57;;;7.70;;
17955;SDS011;27666;51.498;11.966;2022-10-31T05:17:26;11.23;;;7.10;;
17955;SDS011;27666;51.498;11.966;2022-10-31T05:20:12;11.20;;;7.37;;
17955;SDS011;27666;51.498;11.966;2022-10-31T05:23:01;14.07;;;7.57;;
17955;SDS011;27666;51.498;11.966;2022-10-31T05:25:48;14.87;;;7.60;;
17955;SDS011;27666;51.498;11.966;2022-10-31T05:28:34;13.20;;;7.60;;
17955;SDS011;27666;51.498;11.966;2022-10-31T05:31:20;10.77;;;7.53;;
17955;SDS011;27666;51.498;11.966;2022-10-31T05:34:07;12.50;;;7.90;;
17955;SDS011;27666;51.498;11.966;2022-10-31T05:36:53;12.60;;;7.43;;
17955;SDS011;27666;51.498;11.966;2022-10-31T05:39:41;11.03;;;8.30;;
17955;SDS011;27666;51.498;11.966;2022-10-31T05:42:27;13.53;;;7.43;;
17955;SDS011;27666;51.498;11.966;2022-10-31T05:45:15;13.27;;;7.33;;
17955;SDS011;27666;51.498;11.966;2022-10-31T05:48:03;20.10;;;7.50;;
17955;SDS011;27666;51.498;11.966;2022-10-31T05:50:50;10.80;;;7.30;;
17955;SDS011;27666;51.498;11.966;2022-10-31T05:53:36;11.63;;;7.50;;
17955;SDS011;27666;51.498;11.966;2022-10-31T05:56:24;10.63;;;7.40;;
17955;SDS011;27666;51.498;11.966;2022-10-31T05:59:11;12.37;;;7.60;;
17955;SDS011;27666;51.498;11.966;2022-10-31T06:01:57;12.07;;;7.33;;
17955;SDS011;27666;51.498;11.966;2022-10-31T06:04:43;12.10;;;8.40;;
17955;SDS011;27666;51.498;11.966;2022-10-31T06:07:34;13.97;;;7.93;;
17955;SDS011;27666;51.498;11.966;2022-10-31T06:10:21;18.17;;;7.57;;
17955;SDS011;27666;51.498;11.966;2022-10-31T06:13:09;13.90;;;7.90;;
17955;SDS011;27666;51.498;11.966;2022-10-31T06:15:56;12.63;;;7.10;;
17955;SDS011;27666;51.498;11.966;2022-10-31T06:18:42;14.73;;;6.70;;
17955;SDS011;27666;51.498;11.966;2022-10-31T06:21:29;12.50;;;7.30;;
17955;SDS011;27666;51.498;11.966;2022-10-31T06:24:15;12.80;;;7.00;;
17955;SDS011;27666;51.498;11.966;2022-10-31T06:27:02;10.00;;;6.90;;
17955;SDS011;27666;51.498;11.966;2022-10-31T06:29:49;9.73;;;7.00;;
17955;SDS011;27666;51.498;11.966;2022-10-31T06:32:36;9.03;;;6.80;;
17955;SDS011;27666;51.498;11.966;2022-10-31T06:35:22;20.33;;;10.80;;
17955;SDS011;27666;51.498;11.966;2022-10-31T06:38:09;10.60;;;7.17;;
17955;SDS011;27666;51.498;11.966;2022-10-31T06:40:55;11.27;;;6.77;;
17955;SDS011;27666;51.498;11.966;2022-10-31T06:43:41;11.60;;;7.17;;
17955;SDS011;27666;51.498;11.966;2022-10-31T06:46:29;10.20;;;6.60;;
17955;SDS011;27666;51.498;11.966;2022-10-31T06:49:16;13.13;;;6.93;;
17955;SDS011;27666;51.498;11.966;2022-10-31T06:52:02;12.63;;;6.83;;
17955;SDS011;27666;51.498;11.966;2022-10-31T06:54:49;13.13;;;8.13;;
17955;SDS011;27666;51.498;11.966;2022-10-31T06:57:35;12.57;;;7.43;;
17955;SDS011;27666;51.498;11.966;2022-10-31T07:00:22;11.10;;;7.37;;
17955;SDS011;27666;51.498;11.966;2022-10-31T07:03:12;13.70;;;7.53;;
17955;SDS011;27666;51.498;11.966;2022-10-31T07:05:59;16.17;;;8.43;;
17955;SDS011;27666;51.498;11.966;2022-10-31T07:08:46;11.87;;;7.90;;
17955;SDS011;27666;51.498;11.966;2022-10-31T07:11:33;13.60;;;7.60;;
17955;SDS011;27666;51.498;11.966;2022-10-31T07:14:19;12.87;;;7.50;;
17955;SDS011;27666;51.498;11.966;2022-10-31T07:17:06;11.60;;;7.50;;
17955;SDS011;27666;51.498;11.966;2022-10-31T07:19:54;11.83;;;6.30;;
17955;SDS011;27666;51.498;11.966;2022-10-31T07:22:40;13.13;;;7.53;;
17955;SDS011;27666;51.498;11.966;2022-10-31T07:25:31;13.52;;;8.05;;
17955;SDS011;27666;51.498;11.966;2022-10-31T07:28:18;10.38;;;7.10;;
17955;SDS011;27666;51.498;11.966;2022-10-31T07:31:04;10.00;;;6.88;;
17955;SDS011;27666;51.498;11.966;2022-10-31T07:33:51;14.63;;;6.78;;
17955;SDS011;27666;51.498;11.966;2022-10-31T07:36:39;13.77;;;6.90;;
17955;SDS011;27666;51.498;11.966;2022-10-31T07:39:25;12.55;;;7.00;;
17955;SDS011;27666;51.498;11.966;2022-10-31T07:42:12;13.63;;;7.40;;
17955;SDS011;27666;51.498;11.966;2022-10-31T07:44:58;10.13;;;7.43;;
17955;SDS011;27666;51.498;11.966;2022-10-31T07:47:45;11.82;;;7.13;;
17955;SDS011;27666;51.498;11.966;2022-10-31T07:50:32;12.25;;;7.18;;
17955;SDS011;27666;51.498;11.966;2022-10-31T07:53:21;18.33;;;7.82;;
17955;SDS011;27666;51.498;11.966;2022-10-31T07:56:07;10.30;;;7.25;;
17955;SDS011;27666;51.498;11.966;2022-10-31T07:58:54;14.68;;;7.07;;
17955;SDS011;27666;51.498;11.966;2022-10-31T08:01:40;13.65;;;7.15;;
17955;SDS011;27666;51.498;11.966;2022-10-31T08:04:27;11.82;;;7.18;;
17955;SDS011;27666;51.498;11.966;2022-10-31T08:07:13;12.38;;;7.47;;
17955;SDS011;27666;51.498;11.966;2022-10-31T08:10:01;13.52;;;7.07;;
17955;SDS011;27666;51.498;11.966;2022-10-31T08:12:52;10.40;;;7.32;;
17955;SDS011;27666;51.498;11.966;2022-10-31T08:15:41;15.30;;;7.38;;
17955;SDS011;27666;51.498;11.966;2022-10-31T08:18:27;14.27;;;6.50;;
17955;SDS011;27666;51.498;11.966;2022-10-31T08:21:13;14.93;;;8.05;;
17955;SDS011;27666;51.498;11.966;2022-10-31T08:24:00;17.25;;;7.20;;
17955;SDS011;27666;51.498;11.966;2022-10-31T08:26:47;11.82;;;7.25;;
17955;SDS011;27666;51.498;11.966;2022-10-31T08:29:34;15.93;;;7.55;;
17955;SDS011;27666;51.498;11.966;2022-10-31T08:32:21;13.77;;;7.18;;
17955;SDS011;27666;51.498;11.966;2022-10-31T08:35:07;14.63;;;7.72;;
17955;SDS011;27666;51.498;11.966;2022-10-31T08:37:54;11.75;;;7.40;;
17955;SDS011;27666;51.498;11.966;2022-10-31T08:40:40;20.75;;;8.30;;
17955;SDS011;27666;51.498;11.966;2022-10-31T08:43:28;12.13;;;7.50;;
17955;SDS011;27666;51.498;11.966;2022-10-31T08:46:14;16.15;;;7.60;;
17955;SDS011;27666;51.498;11.966;2022-10-31T08:49:01;15.52;;;8.27;;
17955;SDS011;27666;51.498;11.966;2022-10-31T08:51:47;19.52;;;8.88;;
17955;SDS011;27666;51.498;11.966;2022-10-31T08:54:34;18.83;;;9.32;;
17955;SDS011;27666;51.498;11.966;2022-10-31T08:57:20;17.50;;;8.43;;
17955;SDS011;27666;51.498;11.966;2022-10-31T09:00:08;15.60;;;7.78;;
17955;SDS011;27666;51.498;11.966;2022-10-31T09:02:56;26.27;;;9.95;;
17955;SDS011;27666;51.498;11.966;2022-10-31T09:05:43;16.23;;;9.35;;
17955;SDS011;27666;51.498;11.966;2022-10-31T09:08:30;18.08;;;9.20;;
17955;SDS011;27666;51.498;11.966;2022-10-31T09:11:17;20.52;;;9.07;;
17955;SDS011;27666;51.498;11.966;2022-10-31T09:14:04;20.70;;;10.57;;
17955;SDS011;27666;51.498;11.966;2022-10-31T09:16:52;18.17;;;10.38;;
17955;SDS011;27666;51.498;11.966;2022-10-31T09:19:38;19.48;;;10.18;;
17955;SDS011;27666;51.498;11.966;2022-10-31T09:22:25;22.60;;;12.07;;
17955;SDS011;27666;51.498;11.966;2022-10-31T09:25:11;25.05;;;12.98;;
17955;SDS011;27666;51.498;11.966;2022-10-31T09:27:58;27.02;;;12.68;;
17955;SDS011;27666;51.498;11.966;2022-10-31T09:30:46;29.88;;;15.57;;
17955;SDS011;27666;51.498;11.966;2022-10-31T09:33:35;35.40;;;16.90;;
17955;SDS011;27666;51.498;11.966;2022-10-31T09:36:21;37.83;;;17.75;;
17955;SDS011;27666;51.498;11.966;2022-10-31T09:39:08;35.08;;;17.17;;
17955;SDS011;27666;51.498;11.966;2022-10-31T09:41:58;32.83;;;17.50;;
17955;SDS011;27666;51.498;11.966;2022-10-31T09:44:56;29.02;;;16.70;;
17955;SDS011;27666;51.498;11.966;2022-10-31T09:47:53;28.13;;;15.90;;
17955;SDS011;27666;51.498;11.966;2022-10-31T09:50:53;31.80;;;15.48;;
17955;SDS011;27666;51.498;11.966;2022-10-31T09:53:44;27.15;;;15.65;;
17955;SDS011;27666;51.498;11.966;2022-10-31T09:56:34;31.48;;;15.73;;
17955;SDS011;27666;51.498;11.966;2022-10-31T09:59:24;31.27;;;15.80;;
17955;SDS011;27666;51.498;11.966;2022-10-31T10:02:16;37.65;;;17.20;;
17955;SDS011;27666;51.498;11.966;2022-10-31T10:05:09;27.38;;;15.55;;
17955;SDS011;27666;51.498;11.966;2022-10-31T10:08:01;30.65;;;15.80;;
17955;SDS011;27666;51.498;11.966;2022-10-31T10:11:13;30.30;;;16.27;;
17955;SDS011;27666;51.498;11.966;2022-10-31T10:14:19;29.00;;;15.77;;
17955;SDS011;27666;51.498;11.966;2022-10-31T10:17:16;29.15;;;15.23;;
17955;SDS011;27666;51.498;11.966;2022-10-31T10:20:17;31.77;;;16.58;;
17955;SDS011;27666;51.498;11.966;2022-10-31T10:23:17;32.08;;;16.25;;
17955;SDS011;27666;51.498;11.966;2022-10-31T10:26:19;27.73;;;15.68;;
17955;SDS011;27666;51.498;11.966;2022-10-31T10:29:11;31.00;;;16.40;;
17955;SDS011;27666;51.498;11.966;2022-10-31T10:32:12;31.23;;;15.88;;
17955;SDS011;27666;51.498;11.966;2022-10-31T10:35:07;34.72;;;17.02;;
17955;SDS011;27666;51.498;11.966;2022-10-31T10:38:04;28.98;;;15.88;;
17955;SDS011;27666;51.498;11.966;2022-10-31T10:41:02;32.38;;;16.40;;
17955;SDS011;27666;51.498;11.966;2022-10-31T10:43:55;33.67;;;17.15;;
17955;SDS011;27666;51.498;11.966;2022-10-31T10:46:42;37.90;;;16.35;;
17955;SDS011;27666;51.498;11.966;2022-10-31T10:49:51;35.20;;;17.13;;
17955;SDS011;27666;51.498;11.966;2022-10-31T10:52:39;31.63;;;16.90;;
17955;SDS011;27666;51.498;11.966;2022-10-31T10:55:36;31.02;;;17.58;;
17955;SDS011;27666;51.498;11.966;2022-10-31T10:58:29;28.50;;;15.50;;
17955;SDS011;27666;51.498;11.966;2022-10-31T11:01:16;33.05;;;15.18;;
17955;SDS011;27666;51.498;11.966;2022-10-31T11:04:02;29.02;;;16.15;;
17955;SDS011;27666;51.498;11.966;2022-10-31T11:07:01;35.47;;;17.85;;
17955;SDS011;27666;51.498;11.966;2022-10-31T11:09:49;40.42;;;18.50;;
17955;SDS011;27666;51.498;11.966;2022-10-31T11:12:36;38.55;;;17.85;;
17955;SDS011;27666;51.498;11.966;2022-10-31T11:15:24;41.63;;;18.42;;
17955;SDS011;27666;51.498;11.966;2022-10-31T11:18:12;38.63;;;19.40;;
17955;SDS011;27666;51.498;11.966;2022-10-31T11:21:17;32.67;;;17.23;;
17955;SDS011;27666;51.498;11.966;2022-10-31T11:24:11;29.73;;;17.80;;
17955;SDS011;27666;51.498;11.966;2022-10-31T11:27:05;30.85;;;17.52;;
17955;SDS011;27666;51.498;11.966;2022-10-31T11:30:04;40.00;;;18.92;;
17955;SDS011;27666;51.498;11.966;2022-10-31T11:32:53;35.28;;;17.60;;
17955;SDS011;27666;51.498;11.966;2022-10-31T11:35:39;39.45;;;19.08;;
17955;SDS011;27666;51.498;11.966;2022-10-31T11:38:29;44.95;;;21.10;;
17955;SDS011;27666;51.498;11.966;2022-10-31T11:41:19;42.20;;;20.20;;
17955;SDS011;27666;51.498;11.966;2022-10-31T11:44:13;39.33;;;19.65;;
17955;SDS011;27666;51.498;11.966;2022-10-31T11:47:02;40.35;;;19.45;;
17955;SDS011;27666;51.498;11.966;2022-10-31T11:49:52;41.08;;;19.40;;
17955;SDS011;27666;51.498;11.966;2022-10-31T11:52:39;40.05;;;19.85;;
17955;SDS011;27666;51.498;11.966;2022-10-31T11:55:30;43.83;;;20.75;;
17955;SDS011;27666;51.498;11.966;2022-10-31T11:58:19;36.85;;;19.60;;
17955;SDS011;27666;51.498;11.966;2022-10-31T12:01:08;42.97;;;20.20;;
17955;SDS011;27666;51.498;11.966;2022-10-31T12:04:10;41.85;;;19.15;;
17955;SDS011;27666;51.498;11.966;2022-10-31T12:06:59;42.17;;;20.45;;
17955;SDS011;27666;51.498;11.966;2022-10-31T12:09:46;42.40;;;20.13;;
17955;SDS011;27666;51.498;11.966;2022-10-31T12:12:35;35.08;;;19.85;;
17955;SDS011;27666;51.498;11.966;2022-10-31T12:15:43;40.97;;;20.23;;
17955;SDS011;27666;51.498;11.966;2022-10-31T12:18:45;43.72;;;20.02;;
17955;SDS011;27666;51.498;11.966;2022-10-31T12:21:51;41.67;;;21.23;;
17955;SDS011;27666;51.498;11.966;2022-10-31T12:24:57;39.42;;;18.52;;
17955;SDS011;27666;51.498;11.966;2022-10-31T12:28:03;38.97;;;19.52;;
17955;SDS011;27666;51.498;11.966;2022-10-31T12:31:02;45.22;;;21.55;;
17955;SDS011;27666;51.498;11.966;2022-10-31T12:34:02;38.10;;;20.23;;
17955;SDS011;27666;51.498;11.966;2022-10-31T12:37:05;40.30;;;20.33;;
17955;SDS011;27666;51.498;11.966;2022-10-31T12:40:04;40.30;;;20.23;;
17955;SDS011;27666;51.498;11.966;2022-10-31T12:43:12;42.13;;;20.52;;
17955;SDS011;27666;51.498;11.966;2022-10-31T12:46:10;46.63;;;21.40;;
17955;SDS011;27666;51.498;11.966;2022-10-31T12:49:10;40.00;;;19.63;;
17955;SDS011;27666;51.498;11.966;2022-10-31T12:52:08;43.33;;;21.10;;
17955;SDS011;27666;51.498;11.966;2022-10-31T12:55:13;39.05;;;20.13;;
17955;SDS011;27666;51.498;11.966;2022-10-31T12:58:17;37.10;;;19.08;;
17955;SDS011;27666;51.498;11.966;2022-10-31T13:01:09;44.53;;;20.15;;
17955;SDS011;27666;51.498;11.966;2022-10-31T13:04:01;47.88;;;21.02;;
17955;SDS011;27666;51.498;11.966;2022-10-31T13:06:53;41.88;;;20.85;;
17955;SDS011;27666;51.498;11.966;2022-10-31T13:09:46;42.70;;;21.23;;
17955;SDS011;27666;51.498;11.966;2022-10-31T13:12:37;45.78;;;22.15;;
17955;SDS011;27666;51.498;11.966;2022-10-31T13:15:26;45.53;;;22.33;;
17955;SDS011;27666;51.498;11.966;2022-10-31T13:18:19;42.28;;;20.88;;
17955;SDS011;27666;51.498;11.966;2022-10-31T13:21:12;42.05;;;20.75;;
17955;SDS011;27666;51.498;11.966;2022-10-31T13:24:07;44.45;;;20.77;;
17955;SDS011;27666;51.498;11.966;2022-10-31T13:26:59;46.45;;;20.73;;
17955;SDS011;27666;51.498;11.966;2022-10-31T13:29:53;45.00;;;21.65;;
17955;SDS011;27666;51.498;11.966;2022-10-31T13:32:47;42.38;;;20.15;;
17955;SDS011;27666;51.498;11.966;2022-10-31T13:35:37;51.33;;;20.63;;
17955;SDS011;27666;51.498;11.966;2022-10-31T13:38:30;37.83;;;20.08;;
17955;SDS011;27666;51.498;11.966;2022-10-31T13:41:25;53.10;;;25.15;;
17955;SDS011;27666;51.498;11.966;2022-10-31T13:44:18;38.20;;;20.50;;
17955;SDS011;27666;51.498;11.966;2022-10-31T13:47:21;46.20;;;21.52;;
17955;SDS011;27666;51.498;11.966;2022-10-31T13:50:20;44.45;;;21.92;;
17955;SDS011;27666;51.498;11.966;2022-10-31T13:53:12;43.97;;;21.70;;
17955;SDS011;27666;51.498;11.966;2022-10-31T13:56:02;47.70;;;20.58;;
17955;SDS011;27666;51.498;11.966;2022-10-31T13:58:57;43.67;;;22.05;;
17955;SDS011;27666;51.498;11.966;2022-10-31T14:01:47;42.70;;;20.88;;
17955;SDS011;27666;51.498;11.966;2022-10-31T14:04:38;44.10;;;21.38;;
17955;SDS011;27666;51.498;11.966;2022-10-31T14:07:32;41.88;;;21.92;;
17955;SDS011;27666;51.498;11.966;2022-10-31T14:10:20;42.22;;;22.10;;
17955;SDS011;27666;51.498;11.966;2022-10-31T14:13:13;50.38;;;22.25;;
17955;SDS011;27666;51.498;11.966;2022-10-31T14:16:02;47.95;;;21.80;;
17955;SDS011;27666;51.498;11.966;2022-10-31T14:18:51;43.47;;;21.60;;
17955;SDS011;27666;51.498;11.966;2022-10-31T14:21:46;41.85;;;22.05;;
17955;SDS011;27666;51.498;11.966;2022-10-31T14:24:34;50.30;;;22.50;;
17955;SDS011;27666;51.498;11.966;2022-10-31T14:27:42;44.72;;;21.88;;
17955;SDS011;27666;51.498;11.966;2022-10-31T14:30:32;44.60;;;22.20;;
17955;SDS011;27666;51.498;11.966;2022-10-31T14:33:19;40.30;;;21.13;;
17955;SDS011;27666;51.498;11.966;2022-10-31T14:36:08;43.72;;;21.55;;
17955;SDS011;27666;51.498;11.966;2022-10-31T14:39:06;46.97;;;22.40;;
17955;SDS011;27666;51.498;11.966;2022-10-31T14:42:00;45.55;;;23.10;;
17955;SDS011;27666;51.498;11.966;2022-10-31T14:51:23;48.08;;;24.65;;
17955;SDS011;27666;51.498;11.966;2022-10-31T14:54:17;57.90;;;24.13;;
17955;SDS011;27666;51.498;11.966;2022-10-31T14:57:13;54.63;;;24.50;;
17955;SDS011;27666;51.498;11.966;2022-10-31T15:00:03;55.75;;;23.08;;
17955;SDS011;27666;51.498;11.966;2022-10-31T15:02:55;50.17;;;23.35;;
17955;SDS011;27666;51.498;11.966;2022-10-31T15:05:52;43.10;;;21.38;;
17955;SDS011;27666;51.498;11.966;2022-10-31T15:08:43;52.20;;;23.35;;
17955;SDS011;27666;51.498;11.966;2022-10-31T15:11:36;47.53;;;22.92;;
17955;SDS011;27666;51.498;11.966;2022-10-31T15:14:24;54.88;;;24.40;;
17955;SDS011;27666;51.498;11.966;2022-10-31T15:17:12;48.90;;;24.00;;
17955;SDS011;27666;51.498;11.966;2022-10-31T15:19:59;63.35;;;23.95;;
17955;SDS011;27666;51.498;11.966;2022-10-31T15:22:46;54.90;;;25.38;;
17955;SDS011;27666;51.498;11.966;2022-10-31T15:25:33;50.15;;;23.95;;
17955;SDS011;27666;51.498;11.966;2022-10-31T15:28:22;50.85;;;25.70;;
17955;SDS011;27666;51.498;11.966;2022-10-31T15:31:12;56.17;;;24.70;;
17955;SDS011;27666;51.498;11.966;2022-10-31T15:34:02;52.83;;;25.60;;
17955;SDS011;27666;51.498;11.966;2022-10-31T15:36:50;56.80;;;26.90;;
17955;SDS011;27666;51.498;11.966;2022-10-31T15:39:37;58.33;;;28.25;;
17955;SDS011;27666;51.498;11.966;2022-10-31T15:42:24;59.30;;;27.45;;
17955;SDS011;27666;51.498;11.966;2022-10-31T15:45:18;72.57;;;29.77;;
17955;SDS011;27666;51.498;11.966;2022-10-31T15:48:13;68.63;;;31.05;;
17955;SDS011;27666;51.498;11.966;2022-10-31T15:51:02;77.93;;;34.90;;
17955;SDS011;27666;51.498;11.966;2022-10-31T15:53:50;74.30;;;32.65;;
17955;SDS011;27666;51.498;11.966;2022-10-31T15:56:39;75.63;;;32.88;;
17955;SDS011;27666;51.498;11.966;2022-10-31T15:59:29;82.93;;;35.92;;
17955;SDS011;27666;51.498;11.966;2022-10-31T16:02:19;80.28;;;35.08;;
17955;SDS011;27666;51.498;11.966;2022-10-31T16:05:14;73.75;;;34.55;;
17955;SDS011;27666;51.498;11.966;2022-10-31T16:08:02;85.00;;;35.40;;
17955;SDS011;27666;51.498;11.966;2022-10-31T16:10:49;82.30;;;33.53;;
17955;SDS011;27666;51.498;11.966;2022-10-31T16:13:37;76.85;;;35.30;;
17955;SDS011;27666;51.498;11.966;2022-10-31T16:16:26;74.63;;;35.78;;
17955;SDS011;27666;51.498;11.966;2022-10-31T16:19:22;81.22;;;36.72;;
17955;SDS011;27666;51.498;11.966;2022-10-31T16:22:11;85.78;;;34.67;;
17955;SDS011;27666;51.498;11.966;2022-10-31T16:25:01;81.72;;;34.17;;
17955;SDS011;27666;51.498;11.966;2022-10-31T16:27:52;82.10;;;35.45;;
17955;SDS011;27666;51.498;11.966;2022-10-31T16:30:40;87.35;;;36.53;;
17955;SDS011;27666;51.498;11.966;2022-10-31T16:33:33;81.18;;;36.28;;
17955;SDS011;27666;51.498;11.966;2022-10-31T16:36:32;81.05;;;35.17;;